Time;durP1;ratioP1;P1;durP2;ratioP2;P2;SDS_P1;SDS_P2;PMS_P1;PMS_P2;Temp;Humidity;BMP_temperature;BMP_pressure;BME280_temperature;BME280_humidity;BME280_pressure;Samples;Min_cycle;Max_cycle;Signal;HPM_P1;HPM_P2
2022/12/13 00:01:13;;;;;;;20.75;8.25;;;;;;;-6.94;100.00;100820.19;6097870;28;20091;-66
2022/12/13 00:04:09;;;;;;;27.55;8.70;;;;;;;-6.86;100.00;100829.47;6088866;28;20037;-66
2022/12/13 00:07:04;;;;;;;19.60;8.95;;;;;;;-6.71;100.00;100828.25;6097787;28;20029;-66
2022/12/13 00:10:00;;;;;;;16.17;7.27;;;;;;;-6.77;100.00;100831.84;6097491;28;20473;-66
2022/12/13 00:12:55;;;;;;;18.70;7.70;;;;;;;-6.99;100.00;100815.16;6096312;28;20060;-66
2022/12/13 00:16:01;;;;;;;31.00;9.00;;;;;;;-7.28;100.00;100818.34;6097032;28;20036;-66
2022/12/13 00:18:58;;;;;;;30.50;8.43;;;;;;;-6.90;100.00;100819.25;6079890;28;20029;-66
2022/12/13 00:21:54;;;;;;;34.45;9.18;;;;;;;-7.02;100.00;100798.91;6096641;28;20112;-66
2022/12/13 00:24:49;;;;;;;23.03;7.87;;;;;;;-6.79;100.00;100807.81;6097178;28;20037;-67
2022/12/13 00:27:44;;;;;;;20.37;8.00;;;;;;;-6.86;100.00;100792.53;6097547;28;20501;-66
2022/12/13 00:30:40;;;;;;;31.50;9.57;;;;;;;-6.77;100.00;100802.63;6097344;28;20271;-66
2022/12/13 00:33:38;;;;;;;25.20;10.57;;;;;;;-7.09;100.00;100823.13;6096426;28;20460;-67
2022/12/13 00:36:34;;;;;;;34.28;9.40;;;;;;;-8.01;100.00;100807.81;6097241;28;20033;-66
2022/12/13 00:39:29;;;;;;;32.57;8.70;;;;;;;-8.21;100.00;100821.03;6097552;28;20101;-67
2022/12/13 00:42:25;;;;;;;27.55;8.65;;;;;;;-8.52;100.00;100805.31;6096116;28;20029;-66
2022/12/13 00:45:20;;;;;;;19.77;7.37;;;;;;;-7.53;100.00;100800.88;6096595;28;20063;-66
2022/12/13 00:48:15;;;;;;;23.70;8.43;;;;;;;-7.11;100.00;100807.69;6097366;28;20033;-67
2022/12/13 00:51:11;;;;;;;21.13;7.47;;;;;;;-7.30;100.00;100793.50;6097205;28;20041;-67
2022/12/13 00:54:08;;;;;;;19.42;6.35;;;;;;;-7.95;100.00;100818.84;6096630;28;20376;-67
2022/12/13 00:57:04;;;;;;;24.83;8.02;;;;;;;-8.64;100.00;100810.63;6096845;28;20037;-67
2022/12/13 00:59:59;;;;;;;11.57;5.93;;;;;;;-8.45;100.00;100816.31;6096936;28;20116;-67
2022/12/13 01:02:54;;;;;;;20.27;7.80;;;;;;;-7.61;100.00;100818.19;6096279;28;20065;-67
2022/12/13 01:05:50;;;;;;;26.17;8.00;;;;;;;-7.67;100.00;100814.03;6096679;28;20287;-67
2022/12/13 01:08:46;;;;;;;23.05;8.98;;;;;;;-7.57;100.00;100809.53;6096936;28;20025;-67
2022/12/13 01:11:43;;;;;;;23.40;8.68;;;;;;;-7.70;100.00;100808.06;6097051;28;20033;-67
2022/12/13 01:14:39;;;;;;;19.42;7.35;;;;;;;-7.63;100.00;100787.34;6096258;28;20033;-67
2022/12/13 01:17:34;;;;;;;23.40;8.43;;;;;;;-7.44;100.00;100798.94;6096839;28;20043;-66
2022/12/13 01:20:30;;;;;;;22.20;7.18;;;;;;;-7.47;100.00;100796.44;6095885;28;20474;-67
2022/12/13 01:23:26;;;;;;;19.73;6.17;;;;;;;-7.58;100.00;100793.22;6096082;28;20103;-66
2022/12/13 01:26:21;;;;;;;16.20;6.40;;;;;;;-7.49;100.00;100790.47;6100440;28;20287;-66
2022/12/13 01:29:18;;;;;;;11.60;6.17;;;;;;;-7.33;100.00;100775.53;6101137;28;20033;-66
2022/12/13 01:32:13;;;;;;;19.83;6.75;;;;;;;-7.83;100.00;100771.47;6100800;28;20287;-67
2022/12/13 01:35:09;;;;;;;21.03;8.20;;;;;;;-7.45;100.00;100789.56;6100995;28;20032;-67
2022/12/13 01:38:04;;;;;;;23.23;9.45;;;;;;;-7.95;100.00;100787.97;6101353;28;20585;-66
2022/12/13 01:40:59;;;;;;;22.60;8.87;;;;;;;-7.62;100.00;100781.31;6101163;28;20041;-67
2022/12/13 01:44:01;;;;;;;15.93;6.50;;;;;;;-7.71;100.00;100784.06;6100333;28;20032;-67
2022/12/13 01:46:57;;;;;;;30.98;8.00;;;;;;;-7.47;100.00;100786.13;6083384;28;20466;-66
2022/12/13 01:49:53;;;;;;;13.93;7.60;;;;;;;-7.35;100.00;100801.34;6100501;28;20115;-67
2022/12/13 01:52:50;;;;;;;26.15;9.48;;;;;;;-7.64;100.00;100780.50;6100065;28;20448;-66
2022/12/13 01:55:49;;;;;;;25.00;7.47;;;;;;;-7.49;100.00;100787.91;6083139;28;20091;-66
2022/12/13 01:58:46;;;;;;;20.65;7.45;;;;;;;-7.80;100.00;100798.84;6082270;28;20028;-67
2022/12/13 02:01:41;;;;;;;18.05;5.80;;;;;;;-8.02;100.00;100775.25;6100797;28;20393;-67
2022/12/13 02:04:48;;;;;;;26.55;6.32;;;;;;;-7.44;100.00;100765.47;6099590;28;20021;-65
2022/12/13 02:07:44;;;;;;;20.50;8.65;;;;;;;-7.65;100.00;100786.53;6082601;28;20089;-65
2022/12/13 02:10:41;;;;;;;19.60;8.30;;;;;;;-7.64;100.00;100787.38;6100458;28;20036;-67
2022/12/13 02:13:36;;;;;;;29.33;9.85;;;;;;;-7.64;100.00;100782.22;6100179;28;20055;-66
2022/12/13 02:16:49;;;;;;;16.25;7.20;;;;;;;-7.50;100.00;100786.19;6100466;28;20431;-67
2022/12/13 02:20:16;;;;;;;24.52;9.77;;;;;;;-8.30;100.00;100776.66;6080763;28;20179;-66
2022/12/13 02:23:25;;;;;;;28.92;10.00;;;;;;;-8.37;100.00;100795.66;6082094;28;20078;-67
2022/12/13 02:26:39;;;;;;;24.92;10.23;;;;;;;-7.84;100.00;100792.91;6100118;28;20029;-67
2022/12/13 02:30:11;;;;;;;4.70;4.22;;;;;;;-7.67;100.00;100778.00;6100001;28;20041;-66
2022/12/13 02:33:31;;;;;;;12.30;6.45;;;;;;;-7.68;100.00;100789.16;6099490;28;20124;-67
2022/12/13 02:40:26;;;;;;;27.00;8.68;;;;;;;-7.72;100.00;100773.81;6098654;28;20049;-67
2022/12/13 02:43:24;;;;;;;19.00;6.75;;;;;;;-7.60;100.00;100781.28;6097900;28;20103;-67
2022/12/13 02:46:21;;;;;;;24.23;8.30;;;;;;;-7.73;100.00;100780.69;6081785;28;20435;-66
2022/12/13 02:49:18;;;;;;;15.23;7.50;;;;;;;-7.94;100.00;100778.53;6081870;28;20466;-66
2022/12/13 02:52:16;;;;;;;20.17;8.88;;;;;;;-8.16;100.00;100772.09;6067800;28;20116;-66
2022/12/13 02:55:13;;;;;;;20.27;6.47;;;;;;;-7.66;100.00;100769.38;6081426;28;20116;-67
2022/12/13 02:58:12;;;;;;;11.90;5.75;;;;;;;-7.90;100.00;100759.56;6099270;28;20060;-66
2022/12/13 03:01:19;;;;;;;21.30;8.15;;;;;;;-8.10;100.00;100777.94;6099434;28;20037;-67
2022/12/13 03:04:33;;;;;;;21.88;7.35;;;;;;;-8.10;100.00;100764.28;6098820;28;20458;-65
2022/12/13 03:07:35;;;;;;;18.27;7.05;;;;;;;-7.71;100.00;100768.63;6081414;28;20115;-66
2022/12/13 03:11:04;;;;;;;17.63;7.40;;;;;;;-7.61;100.00;100764.16;6081482;28;20409;-66
2022/12/13 03:14:02;;;;;;;21.08;8.70;;;;;;;-7.61;100.00;100769.31;6066548;28;20064;-65
2022/12/13 03:16:59;;;;;;;23.17;7.78;;;;;;;-7.99;100.00;100760.59;6081359;28;20032;-67
2022/12/13 03:19:55;;;;;;;19.55;7.15;;;;;;;-8.37;100.00;100775.09;6099405;28;20485;-66
2022/12/13 03:22:51;;;;;;;19.58;6.57;;;;;;;-7.77;100.00;100761.03;6080036;28;20033;-67
2022/12/13 03:25:52;;;;;;;20.63;6.65;;;;;;;-7.68;100.00;100776.28;6098409;28;20040;-66
2022/12/13 03:28:47;;;;;;;24.63;7.22;;;;;;;-7.76;100.00;100773.03;6081127;28;20098;-66
2022/12/13 03:31:42;;;;;;;25.27;8.90;;;;;;;-7.53;100.00;100759.69;6098193;28;20486;-67
2022/12/13 03:34:38;;;;;;;28.50;7.37;;;;;;;-7.55;100.00;100762.28;6098191;28;20032;-66
2022/12/13 03:37:33;;;;;;;19.67;6.93;;;;;;;-7.45;100.00;100768.97;6098807;28;20028;-66
2022/12/13 03:40:29;;;;;;;18.35;6.35;;;;;;;-7.60;100.00;100764.09;6098515;28;20056;-67
2022/12/13 03:43:25;;;;;;;22.05;8.82;;;;;;;-8.63;100.00;100758.38;6097638;28;20035;-65
2022/12/13 03:46:20;;;;;;;25.15;8.55;;;;;;;-8.92;100.00;100737.47;6098177;28;20033;-66
2022/12/13 03:49:15;;;;;;;28.63;7.43;;;;;;;-8.74;100.00;100756.84;6098414;28;20087;-66
2022/12/13 03:52:11;;;;;;;20.10;5.57;;;;;;;-8.79;100.00;100753.50;6097709;28;20109;-67
2022/12/13 03:55:06;;;;;;;29.40;9.43;;;;;;;-8.81;100.00;100745.84;6098105;28;20033;-65
2022/12/13 03:58:02;;;;;;;22.90;7.63;;;;;;;-8.77;100.00;100744.91;6097227;28;20350;-66
2022/12/13 04:00:57;;;;;;;19.33;7.57;;;;;;;-8.72;100.00;100750.81;6097879;28;20094;-65
2022/12/13 04:03:52;;;;;;;18.87;7.67;;;;;;;-8.75;100.00;100750.84;6097166;28;20025;-66
2022/12/13 04:06:48;;;;;;;13.68;6.45;;;;;;;-8.74;100.00;100749.16;6098140;28;20044;-66
2022/12/13 04:09:43;;;;;;;27.53;9.93;;;;;;;-8.79;100.00;100749.22;6097794;28;20116;-65
2022/12/13 04:15:52;;;;;;;17.88;7.30;;;;;;;-8.57;100.00;100719.75;6097533;28;20562;-65
2022/12/13 04:18:47;;;;;;;18.40;7.30;;;;;;;-8.05;100.00;100734.16;6098072;28;20040;-66
2022/12/13 04:21:43;;;;;;;3.13;2.00;;;;;;;-7.94;100.00;100724.50;6097422;28;20036;-66
2022/12/13 04:24:38;;;;;;;20.40;7.03;;;;;;;-7.80;100.00;100740.53;6097308;28;20033;-67
2022/12/13 04:27:33;;;;;;;13.90;6.30;;;;;;;-7.76;100.00;100744.72;6097476;28;20071;-65
2022/12/13 04:30:29;;;;;;;20.47;7.43;;;;;;;-8.11;100.00;100736.84;6097404;28;20029;-66
2022/12/13 04:33:24;;;;;;;15.83;6.40;;;;;;;-8.04;100.00;100751.28;6096711;28;20274;-67
2022/12/13 04:36:19;;;;;;;17.23;6.30;;;;;;;-8.14;100.00;100750.63;6096848;28;20025;-66
2022/12/13 04:39:15;;;;;;;22.07;7.23;;;;;;;-8.71;100.00;100746.53;6097665;28;20275;-66
2022/12/13 04:42:10;;;;;;;18.20;6.40;;;;;;;-9.07;100.00;100765.91;6096804;28;20473;-66
2022/12/13 04:45:06;;;;;;;11.00;5.63;;;;;;;-8.51;100.00;100745.34;6079314;28;20029;-67
2022/12/13 04:48:01;;;;;;;21.20;7.28;;;;;;;-8.21;100.00;100755.91;6096785;28;20036;-64
2022/12/13 04:50:58;;;;;;;21.23;6.68;;;;;;;-8.26;100.00;100750.00;6097101;28;20025;-65
2022/12/13 04:53:53;;;;;;;14.75;6.88;;;;;;;-8.50;100.00;100747.00;6091799;28;20167;-65
2022/12/13 04:56:48;;;;;;;23.10;8.33;;;;;;;-8.06;100.00;100745.31;6097104;28;20036;-68
2022/12/13 04:59:45;;;;;;;26.48;7.25;;;;;;;-7.85;100.00;100745.75;6096324;28;20108;-65
2022/12/13 05:02:41;;;;;;;15.70;6.10;;;;;;;-7.81;100.00;100748.25;6096500;28;20110;-65
2022/12/13 05:05:40;;;;;;;15.17;5.10;;;;;;;-7.86;100.00;100750.94;6096639;28;20070;-67
2022/12/13 05:08:36;;;;;;;20.52;8.45;;;;;;;-8.24;100.00;100750.81;6096568;28;20063;-66
2022/12/13 05:11:31;;;;;;;17.20;7.60;;;;;;;-8.92;100.00;100752.88;6096909;28;20053;-65
2022/12/13 05:14:27;;;;;;;14.33;4.73;;;;;;;-8.12;100.00;100750.56;6096414;28;20036;-65
2022/12/13 05:17:22;;;;;;;13.52;5.90;;;;;;;-7.96;100.00;100728.81;6096992;28;20083;-66
2022/12/13 05:20:17;;;;;;;17.23;6.60;;;;;;;-7.80;100.00;100732.81;6096670;28;20478;-65
2022/12/13 05:23:13;;;;;;;26.33;6.25;;;;;;;-7.68;100.00;100745.41;6096108;28;20112;-66
2022/12/13 05:26:08;;;;;;;14.67;4.60;;;;;;;-7.55;100.00;100733.97;6096475;28;20035;-66
2022/12/13 05:29:03;;;;;;;17.77;7.68;;;;;;;-8.31;100.00;100739.81;6096772;28;20851;-66
2022/12/13 05:31:59;;;;;;;13.83;6.40;;;;;;;-8.35;100.00;100739.91;6096761;28;20041;-66
2022/12/13 05:34:54;;;;;;;8.00;4.33;;;;;;;-8.44;100.00;100716.94;6096617;28;20091;-66
2022/12/13 05:37:50;;;;;;;14.77;5.23;;;;;;;-7.97;100.00;100727.16;6096729;28;20413;-66
2022/12/13 05:40:46;;;;;;;20.08;6.13;;;;;;;-8.71;100.00;100731.13;6096667;28;20037;-66
2022/12/13 05:43:41;;;;;;;12.90;5.33;;;;;;;-9.00;100.00;100718.75;6095956;28;20131;-66
2022/12/13 05:46:36;;;;;;;16.23;6.00;;;;;;;-8.89;100.00;100729.72;6096448;28;20043;-66
2022/12/13 05:49:32;;;;;;;19.17;7.33;;;;;;;-9.13;100.00;100730.09;6096504;28;20036;-66
2022/12/13 05:52:27;;;;;;;20.60;7.00;;;;;;;-8.96;100.00;100728.09;6078331;28;20516;-66
2022/12/13 05:55:22;;;;;;;21.13;7.13;;;;;;;-9.16;100.00;100712.16;6096106;28;20040;-67
2022/12/13 05:58:17;;;;;;;19.20;6.33;;;;;;;-8.61;100.00;100728.34;6096384;28;20029;-65
2022/12/13 06:01:14;;;;;;;18.93;7.13;;;;;;;-8.75;100.00;100725.16;6096359;28;20754;-66
2022/12/13 06:04:11;;;;;;;13.70;5.22;;;;;;;-8.29;100.00;100724.38;6094863;28;20031;-65
2022/12/13 06:07:06;;;;;;;19.90;6.75;;;;;;;-8.56;100.00;100728.31;6095988;28;20041;-66
2022/12/13 06:10:02;;;;;;;30.80;8.57;;;;;;;-8.59;100.00;100738.63;6096192;28;20071;-67
2022/12/13 06:12:58;;;;;;;14.18;6.57;;;;;;;-8.56;100.00;100731.69;6080375;28;20488;-67
2022/12/13 06:15:53;;;;;;;19.20;7.47;;;;;;;-8.61;100.00;100738.63;6100641;28;20036;-67
2022/12/13 06:18:50;;;;;;;30.93;8.13;;;;;;;-8.58;100.00;100738.59;6096658;28;20440;-68
2022/12/13 06:21:45;;;;;;;22.15;9.13;;;;;;;-8.51;100.00;100741.91;6080419;28;20593;-67
2022/12/13 06:24:40;;;;;;;20.27;6.93;;;;;;;-8.04;100.00;100746.13;6099431;28;20098;-67
2022/12/13 06:27:36;;;;;;;21.00;7.50;;;;;;;-8.07;100.00;100723.06;6099378;28;20102;-67
2022/12/13 06:30:31;;;;;;;13.47;5.87;;;;;;;-7.82;100.00;100736.25;6099996;28;20144;-67
2022/12/13 06:33:27;;;;;;;24.37;7.07;;;;;;;-8.25;100.00;100749.09;6099522;28;20297;-67
2022/12/13 06:36:22;;;;;;;22.60;7.68;;;;;;;-7.84;100.00;100754.31;6100349;28;20112;-67
2022/12/13 06:39:17;;;;;;;26.03;7.00;;;;;;;-7.61;100.00;100736.66;6099903;28;20025;-66
2022/12/13 06:42:15;;;;;;;25.57;7.30;;;;;;;-7.67;100.00;100741.97;6099457;28;20036;-66
2022/12/13 06:45:10;;;;;;;15.75;6.50;;;;;;;-7.86;100.00;100740.66;6099390;28;20458;-66
2022/12/13 06:48:06;;;;;;;22.53;6.70;;;;;;;-7.88;100.00;100742.41;6099719;28;20067;-66
2022/12/13 06:51:03;;;;;;;21.45;7.07;;;;;;;-7.92;100.00;100740.75;6099735;28;20075;-66
2022/12/13 06:53:58;;;;;;;20.00;6.82;;;;;;;-7.79;100.00;100751.63;6098965;28;20033;-67
2022/12/13 06:56:54;;;;;;;18.43;6.10;;;;;;;-7.79;100.00;100747.34;6081398;28;20036;-67
2022/12/13 06:59:49;;;;;;;21.37;7.40;;;;;;;-7.78;100.00;100749.06;6103199;28;20032;-66
2022/12/13 07:02:50;;;;;;;25.43;7.50;;;;;;;-7.81;100.00;100751.69;6098420;28;20276;-66
2022/12/13 07:05:46;;;;;;;17.35;6.25;;;;;;;-8.01;100.00;100752.06;6099559;28;20028;-67
2022/12/13 07:08:43;;;;;;;16.13;5.83;;;;;;;-7.43;100.00;100756.03;6099379;28;20021;-66
2022/12/13 07:11:38;;;;;;;16.55;7.13;;;;;;;-7.77;100.00;100747.34;6099164;28;20064;-66
2022/12/13 07:14:33;;;;;;;20.50;6.63;;;;;;;-7.60;100.00;100748.66;6098330;28;20086;-67
2022/12/13 07:17:29;;;;;;;16.07;7.30;;;;;;;-7.87;100.00;100723.50;6099097;28;20049;-66
2022/12/13 07:20:24;;;;;;;21.97;7.00;;;;;;;-7.67;100.00;100772.84;6098636;28;20037;-67
2022/12/13 07:23:19;;;;;;;19.83;6.97;;;;;;;-7.56;100.00;100760.59;6097721;28;20032;-67
2022/12/13 07:26:15;;;;;;;27.10;7.30;;;;;;;-7.51;100.00;100758.78;6099053;28;20506;-66
2022/12/13 07:29:10;;;;;;;25.33;6.75;;;;;;;-7.34;100.00;100768.72;6098835;28;20024;-67
2022/12/13 07:32:06;;;;;;;17.43;7.07;;;;;;;-7.38;100.00;100757.63;6098367;28;20032;-67
2022/12/13 07:35:01;;;;;;;22.90;7.37;;;;;;;-7.31;100.00;100764.34;6098746;28;20037;-68
2022/12/13 07:37:57;;;;;;;25.37;8.53;;;;;;;-7.61;100.00;100748.72;6098316;28;20059;-67
2022/12/13 07:40:55;;;;;;;17.25;6.35;;;;;;;-7.88;100.00;100770.72;6098801;28;20500;-66
2022/12/13 07:43:51;;;;;;;16.20;6.90;;;;;;;-8.06;100.00;100753.03;6097696;28;20029;-66
2022/12/13 07:46:47;;;;;;;21.98;7.70;;;;;;;-8.06;100.00;100771.88;6097945;28;20087;-66
2022/12/13 07:49:42;;;;;;;16.93;6.93;;;;;;;-8.11;100.00;100749.69;6097987;28;20029;-66
2022/12/13 07:52:37;;;;;;;27.60;9.73;;;;;;;-8.00;100.00;100768.34;6097237;28;20500;-67
2022/12/13 07:55:33;;;;;;;26.93;9.33;;;;;;;-7.87;100.00;100780.09;6098386;28;20350;-67
2022/12/13 07:58:29;;;;;;;15.95;7.68;;;;;;;-7.86;100.00;100764.66;6098059;28;20053;-67
2022/12/13 08:01:25;;;;;;;44.83;14.73;;;;;;;-7.84;100.00;100754.31;6094805;28;20039;-67
2022/12/13 08:04:20;;;;;;;37.43;10.87;;;;;;;-7.77;100.00;100768.75;6096791;28;20498;-66
2022/12/13 08:07:15;;;;;;;26.73;9.30;;;;;;;-7.80;100.00;100755.97;6096437;28;20527;-66
2022/12/13 08:10:11;;;;;;;27.80;9.50;;;;;;;-7.61;100.00;100779.59;6097391;28;20490;-66
2022/12/13 08:13:06;;;;;;;26.57;8.40;;;;;;;-7.61;100.00;100767.56;6097125;28;20037;-66
2022/12/13 08:16:05;;;;;;;15.43;6.27;;;;;;;-7.50;100.00;100775.91;6096655;28;20158;-66
2022/12/13 08:19:00;;;;;;;17.75;7.65;;;;;;;-7.43;100.00;100774.91;6097615;28;20280;-67
2022/12/13 08:21:56;;;;;;;25.60;9.27;;;;;;;-7.45;100.00;100757.81;6097021;28;20036;-66
2022/12/13 08:24:51;;;;;;;25.35;8.45;;;;;;;-7.32;100.00;100767.81;6097858;28;20025;-66
2022/12/13 08:27:46;;;;;;;25.67;8.17;;;;;;;-7.18;100.00;100754.63;6096654;28;20040;-66
2022/12/13 08:30:42;;;;;;;22.53;9.13;;;;;;;-6.88;100.00;100768.53;6097428;28;20033;-66
2022/12/13 08:33:39;;;;;;;16.80;7.03;;;;;;;-6.68;100.00;100762.00;6095268;28;20040;-66
2022/12/13 08:36:34;;;;;;;20.75;7.28;;;;;;;-6.46;100.00;100769.22;6096649;28;20108;-65
2022/12/13 08:39:31;;;;;;;14.47;6.70;;;;;;;-6.32;100.00;100770.56;6097757;28;20037;-67
2022/12/13 08:42:27;;;;;;;24.75;9.55;;;;;;;-6.21;100.00;100759.97;6076365;28;20566;-67
2022/12/13 08:45:26;;;;;;;26.13;8.70;;;;;;;-5.96;100.00;100771.34;6098141;28;20033;-67
2022/12/13 08:48:21;;;;;;;19.20;7.35;;;;;;;-5.87;100.00;100749.59;6096405;28;20104;-66
2022/12/13 08:51:17;;;;;;;49.20;15.33;;;;;;;-5.58;100.00;100758.19;6097543;28;20044;-67
2022/12/13 08:54:12;;;;;;;23.48;9.82;;;;;;;-5.41;100.00;100749.94;6096492;28;20083;-68
2022/12/13 08:57:07;;;;;;;21.43;8.67;;;;;;;-5.23;100.00;100759.72;6094464;28;20021;-68
2022/12/13 09:00:07;;;;;;;26.37;8.97;;;;;;;-5.10;100.00;100758.44;6078571;28;20078;-69
2022/12/13 09:03:04;;;;;;;19.60;7.20;;;;;;;-4.96;100.00;100764.03;6096066;28;20041;-69
2022/12/13 09:06:11;;;;;;;31.92;11.88;;;;;;;-4.97;100.00;100757.16;6096290;28;20390;-70
2022/12/13 09:09:07;;;;;;;16.67;7.63;;;;;;;-4.68;100.00;100763.16;6096744;28;20048;-70
2022/12/13 09:12:02;;;;;;;25.07;9.47;;;;;;;-4.63;100.00;100776.78;6096593;28;20463;-71
2022/12/13 09:14:57;;;;;;;23.45;8.95;;;;;;;-4.75;100.00;100766.81;6096735;28;20025;-70
2022/12/13 09:17:53;;;;;;;26.77;8.67;;;;;;;-4.78;100.00;100769.53;6095995;28;20123;-71
2022/12/13 09:20:48;;;;;;;26.92;9.77;;;;;;;-4.75;100.00;100774.59;6096098;28;20031;-72
2022/12/13 09:23:44;;;;;;;27.90;9.93;;;;;;;-4.75;100.00;100767.69;6096222;28;20033;-72
2022/12/13 09:26:39;;;;;;;30.77;9.93;;;;;;;-4.64;100.00;100775.94;6095418;28;20021;-72
2022/12/13 09:29:35;;;;;;;31.30;8.90;;;;;;;-4.50;100.00;100757.38;6094716;28;20055;-72
2022/12/13 09:32:30;;;;;;;21.15;8.63;;;;;;;-4.42;100.00;100761.41;6095140;28;20478;-71
2022/12/13 09:35:25;;;;;;;20.60;7.78;;;;;;;-4.34;100.00;100766.31;6095847;28;20382;-71
2022/12/13 09:38:21;;;;;;;28.67;8.90;;;;;;;-4.20;100.00;100782.25;6094112;28;20072;-72
2022/12/13 09:41:33;;;;;;;25.33;8.43;;;;;;;-4.15;100.00;100764.81;6044984;28;20096;-71
2022/12/13 09:44:30;;;;;;;22.63;7.45;;;;;;;-4.03;100.00;100785.09;6079864;28;20818;-70
2022/12/13 09:47:42;;;;;;;27.33;8.77;;;;;;;-4.03;100.00;100767.00;6082190;28;20032;-71
2022/12/13 09:50:38;;;;;;;21.25;7.95;;;;;;;-4.08;100.00;100755.94;6082245;28;20044;-70
2022/12/13 09:53:33;;;;;;;25.85;9.10;;;;;;;-3.86;100.00;100751.69;6099738;28;20033;-71
2022/12/13 09:56:29;;;;;;;21.07;7.57;;;;;;;-3.74;100.00;100742.63;6099918;28;20077;-71
2022/12/13 09:59:31;;;;;;;17.53;6.67;;;;;;;-3.72;99.57;100736.50;6099881;28;20120;-70
2022/12/13 10:02:29;;;;;;;15.55;6.95;;;;;;;-3.54;99.31;100734.13;6100026;28;20394;-70
2022/12/13 10:05:30;;;;;;;22.02;7.82;;;;;;;-3.42;98.92;100754.41;6082295;28;20032;-70
2022/12/13 10:08:39;;;;;;;21.45;8.48;;;;;;;-3.23;97.72;100747.63;6100938;28;20079;-70
2022/12/13 10:11:34;;;;;;;18.90;8.00;;;;;;;-3.16;97.37;100754.28;6082257;28;20036;-71
2022/12/13 10:14:36;;;;;;;23.13;7.17;;;;;;;-3.25;96.85;100737.31;6100369;28;20056;-69
2022/12/13 10:17:35;;;;;;;19.20;5.97;;;;;;;-3.30;96.06;100748.75;6082794;28;20040;-71
2022/12/13 10:20:31;;;;;;;20.60;7.57;;;;;;;-3.26;95.29;100755.53;6082504;28;20102;-72
2022/12/13 10:23:27;;;;;;;21.55;8.90;;;;;;;-3.40;94.57;100735.31;6082309;28;20108;-72
2022/12/13 10:26:22;;;;;;;22.87;7.93;;;;;;;-3.31;95.36;100744.47;6100103;28;20039;-72
2022/12/13 10:29:18;;;;;;;25.48;9.13;;;;;;;-3.34;94.81;100723.88;6100567;28;20029;-72
2022/12/13 10:32:13;;;;;;;18.88;8.27;;;;;;;-2.91;95.83;100742.03;6081760;28;20028;-70
2022/12/13 10:35:24;;;;;;;26.70;9.00;;;;;;;-2.73;96.90;100717.94;6082165;28;20370;-70
2022/12/13 10:38:25;;;;;;;19.95;8.27;;;;;;;-2.76;97.39;100684.34;6100205;28;20417;-71
2022/12/13 10:41:35;;;;;;;19.45;8.40;;;;;;;-2.60;95.87;100705.31;6100013;28;20397;-70
2022/12/13 10:44:31;;;;;;;23.48;7.60;;;;;;;-2.45;93.53;100715.06;6081440;28;20037;-71
2022/12/13 10:47:26;;;;;;;22.05;8.60;;;;;;;-2.52;92.75;100700.63;6099613;28;20159;-73
2022/12/13 10:50:25;;;;;;;18.33;6.80;;;;;;;-2.32;91.66;100718.81;6082210;28;20025;-71
2022/12/13 10:53:20;;;;;;;19.83;6.82;;;;;;;-2.43;91.05;100708.91;6099012;28;20110;-71
2022/12/13 10:56:16;;;;;;;21.70;8.70;;;;;;;-2.47;90.16;100715.13;6099930;28;20029;-73
2022/12/13 10:59:34;;;;;;;20.65;6.65;;;;;;;-2.12;90.41;100726.59;6080861;28;20795;-71
2022/12/13 11:02:35;;;;;;;23.63;8.40;;;;;;;-2.15;90.46;100715.50;6098973;28;20025;-71
2022/12/13 11:05:32;;;;;;;18.67;6.18;;;;;;;-2.16;89.72;100712.06;6099645;28;20031;-72
2022/12/13 11:08:29;;;;;;;20.77;8.20;;;;;;;-2.03;90.62;100720.16;6099513;28;20436;-72
2022/12/13 11:11:27;;;;;;;18.73;7.25;;;;;;;-1.91;90.17;100701.44;6099323;28;20037;-71
2022/12/13 11:14:25;;;;;;;17.85;7.13;;;;;;;-2.07;90.08;100706.50;6098649;28;20497;-72
2022/12/13 11:17:23;;;;;;;18.92;7.32;;;;;;;-1.93;90.26;100706.69;6081288;28;20033;-71
2022/12/13 11:20:48;;;;;;;18.20;7.32;;;;;;;-2.27;89.87;100695.25;6081111;28;20037;-70
2022/12/13 11:23:43;;;;;;;19.45;6.85;;;;;;;-2.41;90.28;100678.53;6080704;28;20478;-71
2022/12/13 11:26:41;;;;;;;20.58;6.40;;;;;;;-2.51;90.72;100666.84;6098655;28;20053;-71
2022/12/13 11:30:12;;;;;;;23.48;7.60;;;;;;;-2.47;91.25;100699.53;6081402;28;20040;-71
2022/12/13 11:33:24;;;;;;;21.02;6.47;;;;;;;-2.52;92.81;100705.81;6087365;28;20025;-70
2022/12/13 11:36:24;;;;;;;18.77;6.65;;;;;;;-2.59;92.40;100701.81;6099200;28;20037;-71
2022/12/13 11:39:20;;;;;;;22.48;7.22;;;;;;;-2.85;92.97;100676.09;6081050;28;20036;-71
2022/12/13 11:42:29;;;;;;;21.92;7.60;;;;;;;-2.80;93.20;100684.53;6080461;28;20039;-72
2022/12/13 11:45:28;;;;;;;19.55;6.53;;;;;;;-3.01;93.36;100644.75;6098368;28;20048;-71
2022/12/13 11:48:41;;;;;;;15.68;5.57;;;;;;;-2.80;92.87;100680.16;6080823;28;20049;-72
2022/12/13 11:51:46;;;;;;;21.55;6.80;;;;;;;-2.63;92.93;100682.06;6080177;28;20116;-71
2022/12/13 11:54:56;;;;;;;19.88;5.80;;;;;;;-2.59;93.30;100678.47;6098019;28;20032;-71
2022/12/13 11:57:55;;;;;;;19.70;7.30;;;;;;;-2.51;92.29;100666.84;6079774;28;20029;-71
2022/12/13 12:01:35;;;;;;;19.55;6.95;;;;;;;-2.56;91.14;100663.63;6097196;28;20033;-70
2022/12/13 12:04:49;;;;;;;16.10;6.13;;;;;;;-2.62;91.08;100668.19;6090903;28;20037;-71
2022/12/13 12:07:49;;;;;;;19.88;6.20;;;;;;;-2.72;90.93;100646.16;6081358;28;20033;-71
2022/12/13 12:10:46;;;;;;;16.92;5.88;;;;;;;-2.66;91.18;100658.84;6097870;28;20041;-71
2022/12/13 12:13:48;;;;;;;18.65;7.53;;;;;;;-2.61;91.59;100644.78;6079946;28;20462;-71
2022/12/13 12:16:50;;;;;;;21.15;6.93;;;;;;;-2.60;91.45;100646.47;6098001;28;20029;-71
2022/12/13 12:19:48;;;;;;;25.73;8.65;;;;;;;-2.58;91.26;100639.44;6098203;28;20477;-70
2022/12/13 12:23:03;;;;;;;23.50;7.80;;;;;;;-2.48;90.69;100650.31;6097205;28;20040;-71
2022/12/13 12:26:08;;;;;;;24.65;7.60;;;;;;;-2.48;89.46;100638.16;6079942;28;20039;-70
2022/12/13 12:29:55;;;;;;;19.88;6.47;;;;;;;-2.51;89.81;100651.28;6079783;28;20059;-71
2022/12/13 12:32:57;;;;;;;21.20;7.65;;;;;;;-2.37;90.50;100662.81;6054590;28;20118;-71
2022/12/13 12:36:09;;;;;;;18.15;6.95;;;;;;;-2.28;90.67;100657.25;6079748;28;20036;-71
2022/12/13 12:39:12;;;;;;;19.33;6.95;;;;;;;-2.37;90.74;100642.06;6080103;28;20429;-71
2022/12/13 12:42:23;;;;;;;14.98;6.40;;;;;;;-2.46;91.38;100638.09;6096327;28;20036;-71
2022/12/13 12:45:27;;;;;;;19.70;6.78;;;;;;;-2.38;91.25;100645.53;6097058;28;20098;-70
2022/12/13 12:48:41;;;;;;;20.00;5.68;;;;;;;-2.35;91.45;100642.81;6097353;28;20064;-71
2022/12/13 12:52:00;;;;;;;21.90;8.13;;;;;;;-2.32;91.64;100640.09;6097368;28;20062;-70
2022/12/13 12:55:08;;;;;;;16.42;5.68;;;;;;;-2.28;90.75;100644.25;6079878;28;20033;-70
2022/12/13 12:58:16;;;;;;;23.63;7.07;;;;;;;-2.41;91.64;100642.19;6079319;28;20039;-70
2022/12/13 13:01:33;;;;;;;19.65;8.27;;;;;;;-2.27;91.60;100638.97;6080020;28;20033;-71
2022/12/13 13:04:32;;;;;;;25.55;8.98;;;;;;;-2.19;91.03;100630.84;6096229;28;20381;-71
2022/12/13 13:07:35;;;;;;;17.33;6.25;;;;;;;-2.36;90.67;100622.97;6079738;28;20036;-71
2022/12/13 13:10:30;;;;;;;15.27;5.50;;;;;;;-2.33;91.23;100622.81;6097212;28;20050;-71
2022/12/13 13:13:37;;;;;;;22.77;8.25;;;;;;;-2.19;90.10;100633.44;6096245;28;20485;-71
2022/12/13 13:16:36;;;;;;;18.80;7.25;;;;;;;-2.33;89.95;100633.19;6097096;28;20037;-71
2022/12/13 13:19:31;;;;;;;17.92;6.13;;;;;;;-2.27;90.86;100632.94;6097215;28;20043;-71
2022/12/13 13:22:34;;;;;;;15.40;5.82;;;;;;;-2.36;90.74;100628.16;6100232;28;20034;-71
2022/12/13 13:25:31;;;;;;;26.23;7.47;;;;;;;-2.47;90.77;100620.81;6101796;28;20037;-71
2022/12/13 13:28:26;;;;;;;16.65;6.57;;;;;;;-2.51;91.08;100614.94;6084142;28;20500;-71
2022/12/13 13:31:21;;;;;;;18.40;5.70;;;;;;;-2.49;91.48;100618.31;6084290;28;20056;-72
2022/12/13 13:34:28;;;;;;;19.80;6.90;;;;;;;-2.49;92.06;100610.53;6100949;28;20345;-72
2022/12/13 13:37:23;;;;;;;18.27;7.15;;;;;;;-2.44;92.03;100626.72;6101639;28;20036;-71
2022/12/13 13:40:36;;;;;;;19.47;6.87;;;;;;;-2.55;91.79;100628.94;6101428;28;20028;-71
2022/12/13 13:43:31;;;;;;;14.70;6.43;;;;;;;-2.61;92.53;100624.00;6082980;28;20102;-72